createdAt,value
2017-05-10T00:01:34.090Z,4.90
2017-05-10T00:04:03.650Z,4.90
2017-05-10T00:06:33.178Z,5.00
2017-05-10T00:09:03.451Z,4.80
2017-05-10T00:11:33.186Z,4.70
2017-05-10T00:14:02.705Z,4.40
2017-05-10T00:16:32.274Z,4.50
2017-05-10T00:19:01.799Z,4.60
2017-05-10T00:21:31.330Z,4.60
2017-05-10T00:24:01.634Z,4.70
2017-05-10T00:26:31.201Z,4.80
2017-05-10T00:29:00.784Z,4.90
2017-05-10T00:33:58.157Z,4.70
2017-05-10T00:36:27.685Z,4.60
2017-05-10T00:38:57.549Z,4.50
2017-05-10T00:41:27.180Z,4.40
2017-05-10T00:43:57.453Z,4.30
2017-05-10T00:46:26.973Z,4.30
2017-05-10T00:48:56.510Z,4.30
2017-05-10T00:51:26.032Z,4.40
2017-05-10T00:53:55.633Z,4.10
2017-05-10T00:56:25.156Z,4.20
2017-05-10T00:58:54.705Z,4.30
2017-05-10T01:01:24.229Z,4.20
2017-05-10T01:03:54.513Z,4.10
2017-05-10T01:06:24.037Z,4.10
2017-05-10T01:08:53.573Z,4.20
2017-05-10T01:11:23.100Z,4.20
2017-05-10T01:13:52.653Z,4.20
2017-05-10T01:16:22.181Z,4.20
2017-05-10T01:18:52.461Z,4.20
2017-05-10T01:21:21.976Z,4.20
2017-05-10T01:23:51.541Z,4.20
2017-05-10T01:26:21.060Z,4.20
2017-05-10T01:28:50.589Z,4.20
2017-05-10T01:31:20.112Z,4.20
2017-05-10T01:33:50.412Z,4.20
2017-05-10T01:36:19.956Z,4.20
2017-05-10T01:38:50.285Z,4.20
2017-05-10T01:41:19.804Z,4.20
2017-05-10T01:43:49.329Z,4.30
2017-05-10T01:46:18.860Z,4.30
2017-05-10T01:48:48.393Z,4.00
2017-05-10T01:51:18.700Z,4.00
2017-05-10T01:53:48.540Z,3.90
2017-05-10T01:56:18.097Z,4.00
2017-05-10T01:58:47.661Z,4.00
2017-05-10T02:01:17.264Z,4.20
2017-05-10T02:03:46.784Z,4.10
2017-05-10T02:06:16.312Z,4.00
2017-05-10T02:08:45.868Z,4.00
2017-05-10T02:11:15.388Z,3.90
2017-05-10T02:13:44.952Z,3.70
2017-05-10T02:16:14.484Z,3.60
2017-05-10T02:18:44.012Z,3.70
2017-05-10T02:21:13.547Z,3.60
2017-05-10T02:23:43.080Z,3.60
2017-05-10T02:28:42.556Z,3.60
2017-05-10T02:31:12.427Z,3.60
2017-05-10T02:33:41.950Z,3.40
2017-05-10T02:36:11.500Z,3.50
2017-05-10T02:38:41.053Z,3.50
2017-05-10T02:41:10.593Z,3.50
2017-05-10T02:43:40.112Z,3.50
2017-05-10T02:46:09.640Z,3.60
2017-05-10T02:48:39.915Z,3.60
2017-05-10T02:51:09.452Z,3.50
2017-05-10T02:53:38.977Z,3.60
2017-05-10T02:56:09.257Z,3.60
2017-05-10T02:58:38.839Z,3.60
2017-05-10T03:01:08.399Z,3.70
2017-05-10T03:03:37.979Z,3.70
2017-05-10T03:06:07.515Z,3.70
2017-05-10T03:08:37.055Z,3.80
2017-05-10T03:11:06.603Z,3.80
2017-05-10T03:13:36.128Z,3.80
2017-05-10T03:16:06.427Z,3.70
2017-05-10T03:18:35.947Z,3.70
2017-05-10T03:21:05.495Z,3.60
2017-05-10T03:23:35.331Z,3.50
2017-05-10T03:26:04.864Z,3.60
2017-05-10T03:28:34.387Z,3.70
2017-05-10T03:31:04.671Z,3.80
2017-05-10T03:33:34.207Z,3.90
2017-05-10T03:36:04.511Z,3.90
2017-05-10T03:38:34.026Z,4.00
2017-05-10T03:41:03.579Z,4.00
2017-05-10T03:43:33.108Z,4.00
2017-05-10T03:46:02.641Z,3.90
2017-05-10T03:48:32.155Z,3.90
2017-05-10T03:51:01.690Z,3.90
2017-05-10T03:53:31.246Z,4.00
2017-05-10T03:56:00.814Z,4.10
2017-05-10T03:58:30.334Z,4.10
2017-05-10T04:00:59.855Z,3.90
2017-05-10T04:03:29.394Z,3.90
2017-05-10T04:05:59.682Z,4.00
2017-05-10T04:08:29.235Z,4.00
2017-05-10T04:10:59.870Z,4.00
2017-05-10T04:13:30.454Z,4.20
2017-05-10T04:15:59.986Z,4.20
2017-05-10T04:18:30.283Z,4.20
2017-05-10T04:20:59.810Z,4.30
2017-05-10T04:23:30.114Z,4.20
2017-05-10T04:25:59.722Z,4.30
2017-05-10T04:28:29.326Z,4.30
2017-05-10T04:30:59.754Z,4.40
2017-05-10T04:33:29.290Z,4.40
2017-05-10T04:35:59.582Z,4.40
2017-05-10T04:38:29.134Z,4.50
2017-05-10T04:40:58.762Z,4.60
2017-05-10T04:43:28.553Z,4.60
2017-05-10T04:45:58.302Z,4.70
2017-05-10T04:48:27.998Z,4.90
2017-05-10T04:50:57.526Z,4.90
2017-05-10T04:53:27.073Z,5.00
2017-05-10T04:55:56.673Z,5.10
2017-05-10T04:58:26.222Z,5.20
2017-05-10T05:00:56.457Z,5.20
2017-05-10T05:03:26.001Z,5.30
2017-05-10T05:05:56.621Z,5.40
2017-05-10T05:08:26.175Z,5.40
2017-05-10T05:10:56.433Z,5.60
2017-05-10T05:13:25.961Z,5.70
2017-05-10T05:15:56.230Z,5.80
2017-05-10T05:18:25.769Z,5.80
2017-05-10T05:20:56.149Z,5.90
2017-05-10T05:23:25.702Z,6.10
2017-05-10T05:25:55.225Z,6.20
2017-05-10T05:28:25.509Z,6.30
2017-05-10T05:30:55.125Z,6.30
2017-05-10T05:33:24.677Z,6.50
2017-05-10T05:35:54.201Z,6.60
2017-05-10T05:38:23.789Z,6.60
2017-05-10T05:40:53.324Z,6.70
2017-05-10T05:43:22.861Z,6.70
2017-05-10T05:45:52.390Z,6.80
2017-05-10T05:48:22.653Z,7.00
2017-05-10T05:50:52.196Z,7.10
2017-05-10T05:53:22.461Z,7.10
2017-05-10T05:55:52.012Z,7.00
2017-05-10T05:58:22.405Z,7.10
2017-05-10T06:00:51.969Z,7.20
2017-05-10T06:03:22.237Z,7.30
2017-05-10T06:05:51.774Z,7.40
2017-05-10T06:08:21.345Z,7.60
2017-05-10T06:10:50.865Z,7.50
2017-05-10T06:13:21.550Z,7.50
2017-05-10T06:15:51.068Z,7.50
2017-05-10T06:18:20.605Z,7.60
2017-05-10T06:20:50.140Z,7.60
2017-05-10T06:23:19.657Z,7.80
2017-05-10T06:25:49.948Z,7.80
2017-05-10T06:28:19.465Z,8.00
2017-05-10T06:30:49.005Z,8.00
2017-05-10T06:33:18.557Z,7.90
2017-05-10T06:35:48.084Z,8.20
2017-05-10T06:38:17.608Z,8.10
2017-05-10T06:40:47.900Z,8.40
2017-05-10T06:43:17.428Z,8.30
2017-05-10T06:45:47.700Z,8.60
2017-05-10T06:48:17.236Z,8.40
2017-05-10T06:50:46.761Z,8.40
2017-05-10T06:53:17.048Z,8.50
2017-05-10T06:55:46.581Z,8.80
2017-05-10T06:58:16.900Z,8.90
2017-05-10T07:00:46.396Z,9.10
2017-05-10T07:03:15.945Z,9.00
2017-05-10T07:05:45.480Z,9.10
2017-05-10T07:08:15.032Z,9.30
2017-05-10T07:10:45.296Z,9.30
2017-05-10T07:13:14.833Z,9.50
2017-05-10T07:15:44.355Z,9.50
2017-05-10T07:18:14.656Z,9.60
2017-05-10T07:20:45.256Z,9.70
2017-05-10T07:23:14.799Z,9.90
2017-05-10T07:25:44.324Z,10.00
2017-05-10T07:28:14.605Z,10.00
2017-05-10T07:30:44.152Z,10.10
2017-05-10T07:33:14.420Z,10.00
2017-05-10T07:35:44.203Z,10.30
2017-05-10T07:38:13.731Z,10.30
2017-05-10T07:40:43.272Z,10.50
2017-05-10T07:43:12.812Z,10.60
2017-05-10T07:45:43.084Z,11.00
2017-05-10T07:48:12.639Z,10.90
2017-05-10T07:50:42.172Z,10.90
2017-05-10T07:53:11.711Z,11.30
2017-05-10T07:55:41.255Z,11.30
2017-05-10T07:58:10.812Z,11.30
2017-05-10T08:00:40.345Z,11.20
2017-05-10T08:03:10.632Z,11.40
2017-05-10T08:05:40.187Z,11.90
2017-05-10T08:08:10.460Z,12.10
2017-05-10T08:10:40.256Z,12.00
2017-05-10T08:13:09.759Z,11.80
2017-05-10T08:15:39.296Z,11.90
2017-05-10T08:18:08.847Z,11.60
2017-05-10T08:20:38.387Z,11.80
2017-05-10T08:23:07.927Z,12.20
2017-05-10T08:25:37.476Z,12.40
2017-05-10T08:28:07.012Z,12.40
2017-05-10T08:30:36.555Z,12.40
2017-05-10T08:33:06.899Z,12.20
2017-05-10T08:35:36.444Z,12.50
2017-05-10T08:38:06.244Z,12.30
2017-05-10T08:40:35.759Z,12.50
2017-05-10T08:43:05.375Z,12.50
2017-05-10T08:45:34.891Z,12.00
2017-05-10T08:48:04.420Z,12.10
2017-05-10T08:50:34.808Z,12.20
2017-05-10T08:53:04.300Z,12.30
2017-05-10T08:55:33.839Z,12.40
2017-05-10T08:58:04.119Z,12.50
2017-05-10T09:00:33.667Z,12.70
2017-05-10T09:03:03.935Z,12.40
2017-05-10T09:05:33.511Z,12.40
2017-05-10T09:08:03.786Z,12.70
2017-05-10T09:10:33.367Z,12.70
2017-05-10T09:13:03.319Z,12.80
2017-05-10T09:15:32.927Z,12.90
2017-05-10T09:18:02.423Z,12.90
2017-05-10T09:20:31.964Z,13.10
2017-05-10T09:23:02.258Z,13.40
2017-05-10T09:25:31.791Z,13.30
2017-05-10T09:28:02.083Z,13.40
2017-05-10T09:30:31.619Z,13.00
2017-05-10T09:33:01.177Z,13.20
2017-05-10T09:35:30.723Z,13.10
2017-05-10T09:38:01.006Z,13.10
2017-05-10T09:40:30.559Z,13.40
2017-05-10T09:43:00.847Z,13.50
2017-05-10T09:45:30.458Z,13.70
2017-05-10T09:47:59.989Z,13.20
2017-05-10T09:50:29.490Z,13.30
2017-05-10T09:52:59.786Z,13.70
2017-05-10T09:55:29.326Z,14.00
2017-05-10T09:57:59.615Z,13.70
2017-05-10T10:00:29.146Z,13.80
2017-05-10T10:02:59.426Z,13.80
2017-05-10T10:05:28.967Z,13.80
2017-05-10T10:07:59.262Z,13.80
2017-05-10T10:10:28.794Z,14.50
2017-05-10T10:12:58.326Z,14.60
2017-05-10T10:15:27.870Z,14.60
2017-05-10T10:17:57.403Z,13.90
2017-05-10T10:20:26.966Z,14.20
2017-05-10T10:22:56.504Z,14.00
2017-05-10T10:25:26.042Z,14.30
2017-05-10T10:27:56.317Z,14.60
2017-05-10T10:30:26.286Z,14.90
2017-05-10T10:32:56.561Z,14.60
2017-05-10T10:35:26.112Z,14.30
2017-05-10T10:37:56.446Z,13.90
2017-05-10T10:40:25.957Z,13.90
2017-05-10T10:42:55.493Z,14.40
2017-05-10T10:45:25.025Z,14.80
2017-05-10T10:47:55.325Z,15.40
2017-05-10T10:50:24.853Z,15.20
2017-05-10T10:52:54.389Z,14.70
2017-05-10T10:55:23.929Z,14.40
2017-05-10T10:57:53.453Z,15.10
2017-05-10T11:00:22.978Z,15.10
2017-05-10T11:02:52.528Z,15.30
2017-05-10T11:05:22.053Z,15.20
2017-05-10T11:07:51.609Z,15.10
2017-05-10T11:10:21.902Z,14.70
2017-05-10T11:12:51.457Z,15.20
2017-05-10T11:15:21.009Z,15.40
2017-05-10T11:17:50.769Z,15.40
2017-05-10T11:20:20.425Z,15.30
2017-05-10T11:22:50.065Z,15.30
2017-05-10T11:25:20.432Z,15.20
2017-05-10T11:30:28.684Z,15.50
2017-05-10T11:32:58.242Z,15.40
2017-05-10T11:35:27.770Z,15.30
2017-05-10T11:37:57.317Z,15.10
2017-05-10T11:40:26.857Z,15.40
2017-05-10T11:42:56.412Z,15.90
2017-05-10T11:45:25.957Z,15.70
2017-05-10T11:47:56.237Z,15.30
2017-05-10T11:50:25.785Z,15.20
2017-05-10T11:52:56.082Z,15.20
2017-05-10T11:55:25.612Z,15.40
2017-05-10T11:57:56.016Z,15.80
2017-05-10T12:00:25.561Z,16.10
2017-05-10T12:02:55.105Z,16.10
2017-05-10T12:05:24.632Z,15.90
2017-05-10T12:07:55.156Z,15.90
2017-05-10T12:10:24.701Z,15.70
2017-05-10T12:12:54.240Z,15.70
2017-05-10T12:15:23.777Z,15.90
2017-05-10T12:17:54.076Z,16.20
2017-05-10T12:20:23.616Z,16.10
2017-05-10T12:22:53.916Z,15.90
2017-05-10T12:25:23.452Z,16.10
2017-05-10T12:27:52.996Z,16.40
2017-05-10T12:30:22.541Z,16.60
2017-05-10T12:32:52.093Z,16.20
2017-05-10T12:35:21.632Z,16.10
2017-05-10T12:37:51.192Z,16.30
2017-05-10T12:40:20.724Z,16.40
2017-05-10T12:42:50.279Z,16.40
2017-05-10T12:45:20.556Z,16.50
2017-05-10T12:47:50.108Z,16.60
2017-05-10T12:50:20.388Z,16.50
2017-05-10T12:52:49.951Z,16.70
2017-05-10T12:55:19.495Z,16.90
2017-05-10T12:57:49.031Z,16.90
2017-05-10T13:00:18.576Z,16.90
2017-05-10T13:02:48.111Z,16.90
2017-05-10T13:05:17.651Z,16.90
2017-05-10T13:07:47.191Z,17.30
2017-05-10T13:10:16.752Z,17.20
2017-05-10T13:12:46.291Z,16.60
2017-05-10T13:15:15.851Z,16.80
2017-05-10T13:17:45.391Z,16.90
2017-05-10T13:20:15.683Z,17.20
2017-05-10T13:22:45.231Z,17.40
2017-05-10T13:25:14.759Z,17.40
2017-05-10T13:27:44.319Z,17.00
2017-05-10T13:30:13.860Z,17.00
2017-05-10T13:32:43.395Z,17.00
2017-05-10T13:35:12.931Z,16.90
2017-05-10T13:37:42.463Z,17.00
2017-05-10T13:40:12.019Z,16.90
2017-05-10T13:42:41.555Z,16.80
2017-05-10T13:45:11.835Z,16.80
2017-05-10T13:47:41.355Z,17.10
2017-05-10T13:50:10.943Z,17.50
2017-05-10T13:52:40.479Z,17.50
2017-05-10T13:55:10.027Z,17.40
2017-05-10T13:57:39.563Z,17.50
2017-05-10T14:00:09.127Z,17.30
2017-05-10T14:02:38.655Z,17.90
2017-05-10T14:05:08.206Z,17.80
2017-05-10T14:07:37.731Z,17.70
2017-05-10T14:10:08.018Z,17.70
2017-05-10T14:12:37.570Z,17.70
2017-05-10T14:15:07.130Z,17.50
2017-05-10T14:17:36.658Z,17.60
2017-05-10T14:20:06.939Z,18.40
2017-05-10T14:22:36.471Z,18.50
2017-05-10T14:25:06.022Z,18.40
2017-05-10T14:27:35.555Z,17.90
2017-05-10T14:30:05.106Z,17.90
2017-05-10T14:32:35.375Z,17.80
2017-05-10T14:35:04.915Z,17.70
2017-05-10T14:37:34.450Z,18.00
2017-05-10T14:40:04.015Z,17.90
2017-05-10T14:42:33.542Z,18.30
2017-05-10T14:45:03.830Z,17.80
2017-05-10T14:47:33.354Z,17.90
2017-05-10T14:50:02.890Z,18.50
2017-05-10T14:52:33.158Z,18.00
2017-05-10T14:55:02.695Z,17.90
2017-05-10T14:57:32.226Z,18.00
2017-05-10T15:00:02.522Z,18.10
2017-05-10T15:02:32.046Z,18.00
2017-05-10T15:05:02.330Z,17.80
2017-05-10T15:07:31.878Z,17.90
2017-05-10T15:10:02.159Z,18.10
2017-05-10T15:12:31.686Z,18.20
2017-05-10T15:15:01.226Z,18.20
2017-05-10T15:17:30.870Z,18.30
2017-05-10T15:20:00.678Z,17.80
2017-05-10T15:22:30.318Z,17.60
2017-05-10T15:24:59.854Z,17.70
2017-05-10T15:27:29.409Z,17.80
2017-05-10T15:29:59.017Z,18.10
2017-05-10T15:32:28.525Z,18.10
2017-05-10T15:34:58.817Z,17.90
2017-05-10T15:37:28.353Z,17.90
2017-05-10T15:39:57.894Z,18.00
2017-05-10T15:42:28.174Z,17.90
2017-05-10T15:44:58.691Z,18.00
2017-05-10T15:47:28.230Z,18.50
2017-05-10T15:49:58.501Z,18.20
2017-05-10T15:52:28.037Z,17.90
2017-05-10T15:54:57.561Z,18.00
2017-05-10T15:57:27.089Z,17.80
2017-05-10T15:59:56.860Z,17.80
2017-05-10T16:02:26.485Z,17.80
2017-05-10T16:04:56.025Z,17.80
2017-05-10T16:07:25.557Z,18.10
2017-05-10T16:09:55.149Z,18.10
2017-05-10T16:12:24.653Z,17.90
2017-05-10T16:14:54.384Z,18.00
2017-05-10T16:17:23.950Z,18.10
2017-05-10T16:19:53.473Z,18.20
2017-05-10T16:22:23.029Z,18.00
2017-05-10T16:24:52.548Z,17.60
2017-05-10T16:27:22.941Z,17.80
2017-05-10T16:29:52.462Z,17.80
2017-05-10T16:32:22.024Z,17.90
2017-05-10T16:34:51.969Z,18.10
2017-05-10T16:37:21.524Z,18.10
2017-05-10T16:39:51.049Z,18.00
2017-05-10T16:42:20.602Z,18.00
2017-05-10T16:44:50.129Z,17.90
2017-05-10T16:47:19.656Z,17.90
2017-05-10T16:49:49.197Z,17.80
2017-05-10T16:52:18.737Z,17.60
2017-05-10T16:54:49.069Z,17.60
2017-05-10T16:57:18.580Z,17.80
2017-05-10T16:59:48.124Z,17.70
2017-05-10T17:02:17.660Z,17.60
2017-05-10T17:04:47.193Z,17.70
2017-05-10T17:07:16.757Z,17.70
2017-05-10T17:09:46.513Z,17.60
2017-05-10T17:12:16.077Z,17.50
2017-05-10T17:14:45.605Z,17.80
2017-05-10T17:17:15.884Z,17.60
2017-05-10T17:19:45.413Z,17.60
2017-05-10T17:22:14.968Z,17.60
2017-05-10T17:24:44.504Z,17.30
2017-05-10T17:27:14.036Z,17.30
2017-05-10T17:29:43.576Z,17.00
2017-05-10T17:32:13.113Z,17.80
2017-05-10T17:34:42.652Z,18.40
2017-05-10T17:37:12.940Z,18.60
2017-05-10T17:39:42.471Z,18.90
2017-05-10T17:42:12.024Z,18.90
2017-05-10T17:44:41.555Z,18.20
2017-05-10T17:47:11.108Z,17.90
2017-05-10T17:49:41.384Z,17.50
2017-05-10T17:52:11.024Z,17.40
2017-05-10T17:54:41.300Z,17.50
2017-05-10T17:57:10.859Z,17.50
2017-05-10T17:59:41.135Z,17.40
2017-05-10T18:02:10.687Z,17.40
2017-05-10T18:04:40.964Z,17.30
2017-05-10T18:07:10.517Z,17.20
2017-05-10T18:09:40.797Z,17.00
2017-05-10T18:12:10.356Z,17.00
2017-05-10T18:14:40.632Z,16.90
2017-05-10T18:17:10.179Z,16.80
2017-05-10T18:19:40.459Z,16.40
2017-05-10T18:22:10.019Z,16.30
2017-05-10T18:24:39.560Z,16.30
2017-05-10T18:27:09.116Z,16.30
2017-05-10T18:29:39.399Z,16.30
2017-05-10T18:32:08.932Z,16.30
2017-05-10T18:34:38.488Z,16.30
2017-05-10T18:37:08.023Z,16.10
2017-05-10T18:39:37.571Z,15.90
2017-05-10T18:42:07.099Z,15.70
2017-05-10T18:44:36.639Z,15.60
2017-05-10T18:47:06.192Z,15.40
2017-05-10T18:49:35.727Z,15.40
2017-05-10T18:52:06.231Z,15.40
2017-05-10T18:54:35.767Z,15.20
2017-05-10T18:57:05.323Z,15.20
2017-05-10T18:59:34.978Z,15.10
2017-05-10T19:02:04.535Z,15.10
2017-05-10T19:04:34.391Z,15.10
2017-05-10T19:07:04.186Z,15.20
2017-05-10T19:09:33.748Z,15.00
2017-05-10T19:12:03.315Z,14.70
2017-05-10T19:14:32.850Z,14.70
2017-05-10T19:17:02.395Z,14.60
2017-05-10T19:19:31.934Z,14.40
2017-05-10T19:22:01.491Z,14.10
2017-05-10T19:24:31.779Z,14.10
2017-05-10T19:27:01.323Z,14.10
2017-05-10T19:29:30.935Z,14.00
2017-05-10T19:32:00.503Z,13.90
2017-05-10T19:34:30.027Z,14.00
2017-05-10T19:37:00.351Z,13.90
2017-05-10T19:39:29.899Z,13.90
2017-05-10T19:41:59.430Z,14.00
2017-05-10T19:44:29.055Z,13.90
2017-05-10T19:46:58.586Z,13.80
2017-05-10T19:49:28.150Z,13.80
2017-05-10T19:51:57.694Z,13.80
2017-05-10T19:54:27.254Z,13.70
2017-05-10T19:56:56.782Z,13.70
2017-05-10T19:59:26.322Z,13.60
2017-05-10T20:01:55.858Z,13.60
2017-05-10T20:04:25.398Z,13.40
2017-05-10T20:06:54.934Z,13.30
2017-05-10T20:09:24.490Z,13.30
2017-05-10T20:11:54.035Z,13.40
2017-05-10T20:14:24.319Z,13.10
2017-05-10T20:16:53.873Z,12.80
2017-05-10T20:19:23.406Z,12.90
2017-05-10T20:21:52.949Z,12.90
2017-05-10T20:24:22.505Z,12.80
2017-05-10T20:26:52.046Z,12.90
2017-05-10T20:29:21.598Z,13.00
2017-05-10T20:31:51.134Z,13.00
2017-05-10T20:34:20.674Z,12.70
2017-05-10T20:36:50.206Z,12.90
2017-05-10T20:39:19.738Z,12.80
2017-05-10T20:41:49.286Z,12.80
2017-05-10T20:44:18.817Z,12.90
2017-05-10T20:46:48.341Z,12.80
2017-05-10T20:49:17.889Z,12.60
2017-05-10T20:51:47.413Z,12.40
2017-05-10T20:54:16.965Z,12.20
2017-05-10T20:56:46.498Z,12.30
2017-05-10T20:59:16.053Z,12.30
2017-05-10T21:01:45.885Z,12.40
2017-05-10T21:04:15.433Z,12.40
2017-05-10T21:06:44.969Z,12.30
2017-05-10T21:09:15.250Z,12.30
2017-05-10T21:11:44.791Z,12.30
2017-05-10T21:14:15.061Z,12.40
2017-05-10T21:16:44.601Z,12.40
2017-05-10T21:19:14.169Z,12.40
2017-05-10T21:21:43.701Z,12.30
2017-05-10T21:24:13.241Z,12.20
2017-05-10T21:26:43.521Z,12.00
2017-05-10T21:29:13.046Z,11.80
2017-05-10T21:31:42.601Z,11.60
2017-05-10T21:34:12.131Z,11.60
2017-05-10T21:36:41.656Z,11.60
2017-05-10T21:39:11.193Z,11.60
2017-05-10T21:41:41.576Z,11.50
2017-05-10T21:44:11.090Z,11.50
2017-05-10T21:46:40.613Z,11.40
2017-05-10T21:49:10.905Z,11.30
2017-05-10T21:51:40.441Z,11.00
2017-05-10T21:54:10.725Z,10.90
2017-05-10T21:56:40.248Z,11.00
2017-05-10T21:59:09.805Z,11.10
2017-05-10T22:01:39.333Z,11.20
2017-05-10T22:04:08.905Z,11.10
2017-05-10T22:06:39.281Z,11.20
2017-05-10T22:09:08.809Z,11.00
2017-05-10T22:11:39.081Z,11.20
2017-05-10T22:14:08.615Z,11.10
2017-05-10T22:16:38.176Z,11.00
2017-05-10T22:19:07.712Z,10.90
2017-05-10T22:21:37.253Z,10.90
2017-05-10T22:24:07.528Z,10.80
2017-05-10T22:26:37.101Z,10.60
2017-05-10T22:29:07.365Z,10.40
2017-05-10T22:31:36.924Z,10.20
2017-05-10T22:34:06.512Z,10.20
2017-05-10T22:36:36.141Z,10.30
2017-05-10T22:39:06.524Z,10.30
2017-05-10T22:41:36.113Z,10.10
2017-05-10T22:44:05.736Z,10.20
2017-05-10T22:46:35.280Z,10.20
2017-05-10T22:49:05.563Z,10.20
2017-05-10T22:51:35.100Z,10.20
2017-05-10T22:54:05.539Z,10.20
2017-05-10T22:56:35.072Z,10.30
2017-05-10T22:59:04.615Z,10.30
2017-05-10T23:01:34.144Z,10.20
2017-05-10T23:04:04.419Z,9.90
2017-05-10T23:06:33.961Z,10.00
2017-05-10T23:09:03.504Z,10.10
2017-05-10T23:11:33.467Z,10.10
2017-05-10T23:14:03.004Z,10.30
2017-05-10T23:16:33.279Z,10.00
2017-05-10T23:19:02.904Z,10.00
2017-05-10T23:21:32.452Z,10.00
2017-05-10T23:24:01.984Z,10.00
2017-05-10T23:26:31.543Z,10.10
2017-05-10T23:29:01.827Z,10.10
2017-05-10T23:31:31.420Z,10.20
2017-05-10T23:34:00.951Z,10.10
2017-05-10T23:36:30.568Z,10.10
2017-05-10T23:39:00.116Z,10.00
2017-05-10T23:41:29.784Z,10.00
2017-05-10T23:43:59.323Z,9.90
2017-05-10T23:46:28.887Z,9.90
2017-05-10T23:48:58.503Z,9.80
2017-05-10T23:51:28.104Z,9.60
2017-05-10T23:53:58.348Z,9.60
2017-05-10T23:56:28.651Z,9.60
2017-05-10T23:58:58.259Z,9.60
